createdAt,value
2018-05-07T00:01:27.892Z,3.37
2018-05-07T00:03:56.084Z,3.87
2018-05-07T00:06:23.519Z,3.43
2018-05-07T00:08:51.714Z,3.97
2018-05-07T00:11:19.150Z,3.20
2018-05-07T00:13:46.599Z,3.47
2018-05-07T00:16:14.004Z,4.03
2018-05-07T00:18:41.485Z,3.77
2018-05-07T00:21:08.905Z,3.77
2018-05-07T00:23:36.387Z,3.40
2018-05-07T00:26:03.763Z,3.23
2018-05-07T00:28:31.980Z,3.20
2018-05-07T00:30:59.416Z,3.67
2018-05-07T00:33:26.852Z,3.60
2018-05-07T00:35:55.051Z,3.43
2018-05-07T00:38:22.488Z,3.60
2018-05-07T00:40:49.916Z,3.40
2018-05-07T00:43:17.358Z,3.93
2018-05-07T00:45:44.797Z,3.53
2018-05-07T00:48:12.229Z,3.90
2018-05-07T00:50:39.664Z,3.70
2018-05-07T00:53:07.091Z,3.33
2018-05-07T00:55:35.311Z,3.60
2018-05-07T00:58:02.744Z,3.40
2018-05-07T01:00:30.189Z,3.80
2018-05-07T01:02:58.369Z,3.60
2018-05-07T01:05:25.809Z,3.90
2018-05-07T01:07:54.009Z,4.10
2018-05-07T01:10:21.433Z,3.80
2018-05-07T01:12:49.720Z,4.37
2018-05-07T01:15:17.068Z,3.87
2018-05-07T01:17:45.265Z,3.67
2018-05-07T01:20:12.697Z,3.77
2018-05-07T01:22:40.938Z,4.10
2018-05-07T01:25:08.356Z,4.00
2018-05-07T01:27:35.793Z,3.97
2018-05-07T01:30:03.217Z,3.90
2018-05-07T01:32:31.413Z,3.80
2018-05-07T01:34:58.852Z,3.90
2018-05-07T01:37:27.058Z,4.23
2018-05-07T01:39:54.488Z,4.27
2018-05-07T01:42:22.344Z,4.27
2018-05-07T01:44:49.745Z,3.93
2018-05-07T01:47:17.176Z,4.03
2018-05-07T01:49:44.621Z,3.70
2018-05-07T01:52:12.067Z,4.53
2018-05-07T01:54:40.261Z,4.00
2018-05-07T01:57:07.688Z,4.10
2018-05-07T01:59:35.881Z,4.23
2018-05-07T02:02:03.313Z,4.20
2018-05-07T02:04:31.658Z,3.80
2018-05-07T02:06:59.078Z,3.83
2018-05-07T02:09:26.515Z,3.80
2018-05-07T02:11:53.944Z,3.87
2018-05-07T02:14:22.143Z,4.00
2018-05-07T02:16:49.575Z,4.10
2018-05-07T02:19:17.767Z,3.87
2018-05-07T02:21:45.222Z,4.20
2018-05-07T02:24:13.409Z,3.90
2018-05-07T02:26:40.844Z,4.63
2018-05-07T02:29:09.043Z,4.43
2018-05-07T02:31:36.470Z,3.80
2018-05-07T02:34:03.908Z,4.20
2018-05-07T02:36:32.108Z,4.27
2018-05-07T02:38:59.573Z,4.20
2018-05-07T02:41:26.987Z,3.80
2018-05-07T02:43:55.187Z,4.27
2018-05-07T02:46:22.620Z,3.93
2018-05-07T02:48:50.824Z,4.40
2018-05-07T02:51:18.264Z,3.80
2018-05-07T02:53:45.696Z,3.73
2018-05-07T02:56:13.898Z,3.90
2018-05-07T02:58:41.363Z,4.33
2018-05-07T03:01:08.781Z,4.00
2018-05-07T03:03:36.984Z,4.20
2018-05-07T03:06:04.415Z,4.20
2018-05-07T03:08:31.851Z,4.40
2018-05-07T03:11:00.046Z,4.17
2018-05-07T03:13:27.488Z,4.10
2018-05-07T03:15:55.693Z,4.03
2018-05-07T03:18:23.136Z,4.60
2018-05-07T03:20:51.329Z,3.97
2018-05-07T03:23:18.760Z,4.17
2018-05-07T03:25:46.193Z,4.23
2018-05-07T03:28:14.387Z,4.40
2018-05-07T03:30:41.811Z,4.70
2018-05-07T03:33:10.020Z,4.20
2018-05-07T03:35:37.486Z,4.23
2018-05-07T03:38:04.911Z,4.70
2018-05-07T03:40:33.205Z,3.97
2018-05-07T03:43:00.573Z,4.40
2018-05-07T03:45:28.000Z,4.87
2018-05-07T03:47:55.431Z,4.93
2018-05-07T03:50:23.630Z,4.37
2018-05-07T03:52:51.258Z,4.13
2018-05-07T03:55:18.686Z,4.80
2018-05-07T03:57:46.116Z,4.30
2018-05-07T04:00:13.569Z,4.60
2018-05-07T04:02:41.000Z,4.47
2018-05-07T04:05:08.427Z,3.97
2018-05-07T04:07:35.874Z,4.07
2018-05-07T04:10:03.303Z,4.07
2018-05-07T04:12:31.574Z,4.40
2018-05-07T04:14:59.015Z,4.30
2018-05-07T04:20:42.195Z,4.60
2018-05-07T04:23:21.485Z,4.13
2018-05-07T04:25:49.230Z,4.60
2018-05-07T04:28:16.659Z,5.13
2018-05-07T04:30:44.106Z,4.73
2018-05-07T04:33:11.540Z,4.43
2018-05-07T04:35:38.964Z,4.30
2018-05-07T04:38:06.406Z,4.30
2018-05-07T04:40:33.839Z,4.63
2018-05-07T04:43:02.040Z,4.43
2018-05-07T04:45:29.486Z,4.77
2018-05-07T04:47:56.921Z,4.80
2018-05-07T04:50:25.103Z,4.93
2018-05-07T04:52:53.309Z,4.50
2018-05-07T04:55:20.739Z,4.17
2018-05-07T04:57:48.168Z,4.33
2018-05-07T05:00:16.381Z,4.33
2018-05-07T05:02:43.819Z,3.93
2018-05-07T05:05:11.243Z,4.57
2018-05-07T05:07:39.445Z,4.00
2018-05-07T05:10:06.884Z,4.33
2018-05-07T05:12:35.092Z,4.40
2018-05-07T05:15:02.514Z,4.30
2018-05-07T05:17:29.951Z,4.33
2018-05-07T05:19:58.166Z,4.43
2018-05-07T05:22:25.612Z,4.50
2018-05-07T05:24:53.043Z,4.97
2018-05-07T05:27:21.295Z,4.70
2018-05-07T05:29:48.712Z,5.20
2018-05-07T05:32:16.163Z,4.93
2018-05-07T05:34:43.626Z,4.90
2018-05-07T05:37:11.111Z,5.23
2018-05-07T05:39:38.513Z,4.90
2018-05-07T05:42:05.971Z,5.40
2018-05-07T05:44:33.396Z,5.03
2018-05-07T05:47:01.600Z,5.20
2018-05-07T05:49:29.049Z,4.90
2018-05-07T05:51:56.484Z,5.10
2018-05-07T05:54:24.695Z,4.50
2018-05-07T05:56:52.121Z,4.90
2018-05-07T05:59:19.560Z,4.80
2018-05-07T06:01:47.784Z,5.37
2018-05-07T06:04:15.222Z,5.03
2018-05-07T06:06:42.668Z,5.00
2018-05-07T06:09:10.116Z,4.53
2018-05-07T06:11:37.567Z,4.43
2018-05-07T06:14:04.996Z,4.53
2018-05-07T06:16:32.457Z,4.60
2018-05-07T06:19:00.660Z,4.73
2018-05-07T06:21:28.113Z,4.43
2018-05-07T06:23:55.571Z,4.17
2018-05-07T06:26:23.006Z,4.33
2018-05-07T06:28:51.231Z,4.83
2018-05-07T06:31:18.691Z,5.03
2018-05-07T06:33:46.156Z,4.20
2018-05-07T06:36:13.585Z,3.57
2018-05-07T06:38:41.036Z,4.20
2018-05-07T06:41:08.480Z,3.70
2018-05-07T06:43:35.921Z,3.97
2018-05-07T06:46:03.443Z,3.77
2018-05-07T06:48:31.593Z,3.70
2018-05-07T06:50:59.024Z,3.50
2018-05-07T06:53:26.460Z,4.47
2018-05-07T06:55:53.917Z,4.10
2018-05-07T06:58:21.355Z,4.63
2018-05-07T07:00:49.552Z,3.43
2018-05-07T07:03:17.022Z,3.90
2018-05-07T07:05:44.479Z,3.37
2018-05-07T07:08:11.931Z,3.70
2018-05-07T07:10:39.363Z,3.87
2018-05-07T07:13:06.787Z,3.70
2018-05-07T07:15:35.004Z,3.37
2018-05-07T07:18:02.453Z,3.03
2018-05-07T07:20:29.879Z,3.37
2018-05-07T07:22:57.333Z,3.40
2018-05-07T07:25:25.549Z,2.70
2018-05-07T07:27:53.004Z,3.47
2018-05-07T07:30:20.433Z,3.20
2018-05-07T07:32:47.887Z,3.10
2018-05-07T07:35:15.322Z,2.70
2018-05-07T07:37:43.535Z,3.20
2018-05-07T07:40:10.963Z,3.33
2018-05-07T07:42:38.432Z,3.50
2018-05-07T07:45:05.866Z,2.80
2018-05-07T07:47:34.068Z,2.67
2018-05-07T07:50:01.578Z,2.77
2018-05-07T07:52:29.855Z,2.60
2018-05-07T07:54:57.241Z,3.00
2018-05-07T07:57:24.662Z,3.10
2018-05-07T07:59:52.880Z,3.37
2018-05-07T08:02:20.339Z,3.20
2018-05-07T08:04:47.772Z,2.70
2018-05-07T08:07:15.230Z,3.00
2018-05-07T08:09:42.652Z,2.60
2018-05-07T08:12:10.969Z,3.00
2018-05-07T08:14:38.314Z,2.90
2018-05-07T08:17:05.773Z,3.13
2018-05-07T08:19:33.209Z,2.90
2018-05-07T08:22:00.631Z,2.67
2018-05-07T08:24:28.072Z,2.50
2018-05-07T08:26:55.513Z,2.53
2018-05-07T08:29:22.949Z,2.73
2018-05-07T08:31:50.416Z,2.70
2018-05-07T08:34:17.868Z,2.97
2018-05-07T08:36:45.387Z,3.10
2018-05-07T08:39:12.764Z,3.30
2018-05-07T08:41:40.207Z,2.70
2018-05-07T08:44:07.648Z,2.70
2018-05-07T08:46:35.096Z,3.00
2018-05-07T08:49:03.308Z,2.73
2018-05-07T08:51:30.768Z,2.80
2018-05-07T08:53:58.269Z,2.80
2018-05-07T08:56:25.673Z,2.67
2018-05-07T08:58:53.103Z,2.60
2018-05-07T09:01:20.561Z,2.70
2018-05-07T09:03:48.013Z,2.90
2018-05-07T09:06:15.444Z,2.70
2018-05-07T09:08:42.939Z,2.50
2018-05-07T09:11:10.354Z,2.80
2018-05-07T09:13:38.558Z,2.47
2018-05-07T09:16:06.005Z,2.60
2018-05-07T09:18:33.442Z,2.87
2018-05-07T09:21:01.667Z,2.20
2018-05-07T09:23:29.120Z,2.00
2018-05-07T09:25:56.548Z,2.57
2018-05-07T09:28:24.006Z,2.50
2018-05-07T09:30:51.455Z,2.13
2018-05-07T09:33:18.903Z,2.50
2018-05-07T09:35:46.361Z,2.50
2018-05-07T09:38:13.797Z,2.65
2018-05-07T09:40:42.008Z,2.43
2018-05-07T09:43:09.461Z,2.50
2018-05-07T09:45:36.893Z,2.40
2018-05-07T09:48:04.353Z,2.77
2018-05-07T09:50:31.796Z,2.17
2018-05-07T09:52:59.232Z,2.80
2018-05-07T09:55:27.550Z,2.73
2018-05-07T09:58:01.714Z,2.63
2018-05-07T10:00:34.824Z,2.27
2018-05-07T10:03:02.262Z,2.58
2018-05-07T10:05:30.482Z,2.33
2018-05-07T10:07:57.919Z,2.37
2018-05-07T10:10:25.387Z,2.05
2018-05-07T10:12:52.831Z,2.40
2018-05-07T10:15:20.298Z,2.62
2018-05-07T10:17:48.483Z,2.60
2018-05-07T10:20:15.921Z,2.10
2018-05-07T10:22:43.371Z,2.40
2018-05-07T10:25:10.821Z,2.40
2018-05-07T10:27:38.273Z,2.20
2018-05-07T10:30:05.708Z,2.50
2018-05-07T10:32:33.928Z,2.10
2018-05-07T10:35:01.377Z,2.28
2018-05-07T10:37:28.829Z,2.65
2018-05-07T10:39:56.256Z,2.20
2018-05-07T10:42:23.697Z,2.78
2018-05-07T10:44:51.899Z,2.00
2018-05-07T10:47:19.345Z,2.15
2018-05-07T10:49:46.796Z,2.25
2018-05-07T10:52:14.248Z,2.20
2018-05-07T10:54:41.680Z,2.33
2018-05-07T10:57:09.899Z,2.05
2018-05-07T10:59:37.452Z,2.00
2018-05-07T11:02:04.889Z,2.55
2018-05-07T11:04:32.325Z,2.20
2018-05-07T11:07:00.539Z,2.30
2018-05-07T11:09:27.975Z,2.20
2018-05-07T11:11:55.424Z,2.10
2018-05-07T11:14:22.856Z,2.50
2018-05-07T11:16:51.065Z,2.15
2018-05-07T11:19:18.502Z,2.40
2018-05-07T11:21:45.948Z,2.22
2018-05-07T11:24:14.149Z,2.17
2018-05-07T11:26:41.593Z,2.30
2018-05-07T11:29:09.075Z,1.90
2018-05-07T11:31:37.304Z,1.70
2018-05-07T11:34:05.506Z,1.80
2018-05-07T11:36:32.936Z,2.17
2018-05-07T11:39:00.421Z,2.17
2018-05-07T11:41:27.829Z,2.00
2018-05-07T11:43:56.043Z,1.90
2018-05-07T11:46:23.471Z,1.90
2018-05-07T11:48:50.921Z,1.80
2018-05-07T11:51:19.129Z,1.90
2018-05-07T11:53:46.616Z,1.87
2018-05-07T11:56:14.051Z,2.35
2018-05-07T11:58:41.480Z,1.87
2018-05-07T12:01:08.939Z,1.90
2018-05-07T12:03:36.368Z,1.75
2018-05-07T12:06:03.809Z,2.00
2018-05-07T12:08:32.054Z,1.60
2018-05-07T12:10:59.486Z,1.80
2018-05-07T12:13:26.912Z,1.58
2018-05-07T12:15:54.382Z,2.03
2018-05-07T12:18:21.804Z,2.00
2018-05-07T12:20:50.021Z,1.70
2018-05-07T12:23:17.484Z,1.98
2018-05-07T12:25:44.937Z,2.28
2018-05-07T12:28:12.375Z,1.87
2018-05-07T12:30:39.832Z,2.08
2018-05-07T12:33:07.356Z,1.83
2018-05-07T12:35:35.551Z,2.03
2018-05-07T12:38:03.008Z,2.30
2018-05-07T12:40:30.470Z,1.95
2018-05-07T12:42:57.896Z,2.20
2018-05-07T12:45:26.104Z,1.83
2018-05-07T12:47:53.554Z,1.70
2018-05-07T12:50:20.984Z,2.00
2018-05-07T12:52:48.465Z,1.77
2018-05-07T12:55:15.899Z,1.95
2018-05-07T12:57:43.348Z,1.67
2018-05-07T13:00:10.792Z,2.00
2018-05-07T13:02:39.002Z,1.80
2018-05-07T13:05:06.460Z,1.95
2018-05-07T13:07:33.891Z,2.10
2018-05-07T13:10:01.366Z,1.98
2018-05-07T13:12:28.808Z,1.67
2018-05-07T13:14:56.258Z,2.08
2018-05-07T13:17:23.679Z,1.73
2018-05-07T13:19:51.901Z,1.90
2018-05-07T13:22:19.333Z,2.03
2018-05-07T13:24:46.839Z,1.87
2018-05-07T13:27:14.218Z,1.75
2018-05-07T13:29:42.456Z,1.92
2018-05-07T13:32:09.889Z,2.15
2018-05-07T13:34:37.324Z,2.20
2018-05-07T13:37:04.771Z,1.87
2018-05-07T13:39:32.987Z,1.98
2018-05-07T13:42:00.448Z,1.77
2018-05-07T13:44:27.887Z,2.40
2018-05-07T13:46:55.324Z,1.80
2018-05-07T13:49:22.783Z,1.83
2018-05-07T13:51:50.226Z,2.00
2018-05-07T13:54:17.680Z,1.80
2018-05-07T13:56:45.145Z,1.95
2018-05-07T13:59:13.332Z,1.98
2018-05-07T14:01:40.792Z,1.98
2018-05-07T14:04:08.234Z,2.10
2018-05-07T14:06:35.680Z,2.15
2018-05-07T14:09:03.119Z,2.00
2018-05-07T14:11:31.339Z,2.12
2018-05-07T14:13:58.792Z,1.90
2018-05-07T14:16:26.251Z,1.87
2018-05-07T14:18:54.505Z,1.90
2018-05-07T14:21:21.940Z,1.90
2018-05-07T14:23:49.389Z,1.70
2018-05-07T14:26:16.842Z,1.77
2018-05-07T14:28:45.070Z,1.92
2018-05-07T14:31:12.519Z,1.90
2018-05-07T14:33:39.976Z,2.05
2018-05-07T14:36:08.176Z,1.85
2018-05-07T14:38:36.394Z,1.90
2018-05-07T14:41:03.832Z,1.67
2018-05-07T14:43:31.270Z,2.08
2018-05-07T14:45:59.557Z,1.90
2018-05-07T14:48:27.012Z,2.00
2018-05-07T14:50:54.458Z,2.10
2018-05-07T14:53:22.664Z,2.08
2018-05-07T14:55:50.174Z,2.10
2018-05-07T14:58:17.540Z,1.98
2018-05-07T15:00:45.751Z,1.75
2018-05-07T15:03:13.200Z,1.98
2018-05-07T15:05:40.628Z,1.80
2018-05-07T15:08:08.065Z,1.98
2018-05-07T15:10:36.325Z,2.55
2018-05-07T15:13:03.708Z,1.90
2018-05-07T15:15:31.157Z,2.00
2018-05-07T15:17:59.383Z,2.20
2018-05-07T15:20:26.836Z,1.90
2018-05-07T15:22:54.292Z,2.00
2018-05-07T15:25:21.743Z,2.00
2018-05-07T15:27:49.180Z,2.20
2018-05-07T15:30:16.622Z,1.80
2018-05-07T15:32:44.073Z,2.00
2018-05-07T15:35:11.521Z,2.10
2018-05-07T15:37:38.974Z,1.90
2018-05-07T15:40:06.415Z,2.10
2018-05-07T15:42:34.630Z,2.10
2018-05-07T15:45:02.067Z,2.00
2018-05-07T15:47:29.544Z,2.00
2018-05-07T15:49:56.975Z,1.98
2018-05-07T15:52:24.432Z,2.00
2018-05-07T15:54:51.887Z,1.87
2018-05-07T15:57:19.327Z,2.20
2018-05-07T15:59:47.588Z,1.92
2018-05-07T16:02:15.089Z,1.87
2018-05-07T16:04:42.540Z,2.10
2018-05-07T16:07:10.093Z,2.40
2018-05-07T16:09:37.525Z,2.17
2018-05-07T16:12:04.976Z,2.30
2018-05-07T16:14:32.979Z,2.08
2018-05-07T16:17:00.411Z,2.12
2018-05-07T16:19:27.875Z,2.10
2018-05-07T16:21:55.351Z,2.00
2018-05-07T16:24:22.777Z,2.20
2018-05-07T16:26:50.224Z,2.58
2018-05-07T16:29:17.668Z,2.00
2018-05-07T16:31:45.891Z,2.10
2018-05-07T16:34:13.346Z,2.20
2018-05-07T16:36:40.783Z,2.15
2018-05-07T16:39:08.219Z,2.00
2018-05-07T16:41:35.647Z,2.30
2018-05-07T16:44:03.853Z,2.03
2018-05-07T16:46:31.299Z,2.25
2018-05-07T16:48:58.804Z,2.20
2018-05-07T16:51:26.939Z,2.20
2018-05-07T16:53:54.368Z,2.40
2018-05-07T16:56:21.818Z,2.33
2018-05-07T16:58:50.025Z,2.50
2018-05-07T17:01:17.501Z,2.20
2018-05-07T17:03:44.973Z,2.30
2018-05-07T17:06:12.414Z,2.23
2018-05-07T17:08:39.835Z,2.30
2018-05-07T17:11:07.307Z,2.60
2018-05-07T17:13:34.777Z,2.50
2018-05-07T17:16:03.330Z,2.57
2018-05-07T17:18:30.772Z,2.83
2018-05-07T17:20:58.213Z,2.53
2018-05-07T17:23:26.464Z,2.40
2018-05-07T17:25:53.912Z,2.80
2018-05-07T17:28:21.359Z,2.70
2018-05-07T17:30:48.804Z,2.73
2018-05-07T17:33:16.248Z,2.87
2018-05-07T17:35:43.716Z,3.00
2018-05-07T17:38:11.139Z,2.40
2018-05-07T17:40:38.579Z,2.73
2018-05-07T17:43:06.029Z,2.90
2018-05-07T17:45:58.167Z,3.07
2018-05-07T17:48:37.499Z,2.97
2018-05-07T17:51:04.941Z,2.70
2018-05-07T17:53:33.160Z,2.83
2018-05-07T17:56:00.609Z,2.37
2018-05-07T17:58:28.044Z,2.50
2018-05-07T18:00:55.485Z,2.67
2018-05-07T18:03:22.951Z,3.10
2018-05-07T18:05:50.387Z,3.30
2018-05-07T18:08:18.607Z,2.93
2018-05-07T18:10:46.146Z,2.97
2018-05-07T18:13:13.498Z,2.93
2018-05-07T18:15:41.149Z,4.93
2018-05-07T18:18:09.140Z,3.93
2018-05-07T18:20:36.583Z,3.20
2018-05-07T18:23:04.017Z,6.53
2018-05-07T18:25:31.496Z,8.17
2018-05-07T18:27:58.928Z,4.10
2018-05-07T18:30:26.364Z,4.60
2018-05-07T18:32:54.575Z,3.90
2018-05-07T18:35:22.015Z,3.37
2018-05-07T18:37:49.455Z,3.00
2018-05-07T18:40:17.653Z,3.30
2018-05-07T18:42:45.298Z,3.37
2018-05-07T18:45:12.740Z,3.00
2018-05-07T18:47:40.953Z,3.20
2018-05-07T18:50:08.400Z,3.10
2018-05-07T18:52:35.836Z,2.53
2018-05-07T18:55:03.274Z,2.90
2018-05-07T18:57:31.480Z,2.80
2018-05-07T18:59:59.009Z,2.93
2018-05-07T19:02:26.368Z,2.47
2018-05-07T19:04:53.798Z,2.90
2018-05-07T19:07:22.003Z,3.33
2018-05-07T19:09:49.471Z,3.23
2018-05-07T19:12:17.024Z,2.87
2018-05-07T19:14:44.460Z,2.80
2018-05-07T19:17:11.895Z,3.20
2018-05-07T19:19:40.115Z,3.30
2018-05-07T19:22:07.529Z,3.33
2018-05-07T19:24:35.733Z,2.93
2018-05-07T19:27:03.208Z,3.03
2018-05-07T19:29:30.641Z,3.20
2018-05-07T19:31:58.068Z,3.07
2018-05-07T19:34:26.280Z,3.10
2018-05-07T19:36:53.708Z,2.87
2018-05-07T19:39:21.152Z,2.90
2018-05-07T19:41:48.586Z,3.00
2018-05-07T19:44:17.055Z,2.97
2018-05-07T19:46:44.536Z,2.93
2018-05-07T19:49:12.740Z,2.70
2018-05-07T19:51:40.215Z,2.80
2018-05-07T19:54:07.650Z,3.13
2018-05-07T19:56:35.092Z,2.70
2018-05-07T19:59:02.524Z,2.70
2018-05-07T20:01:30.765Z,2.80
2018-05-07T20:03:58.207Z,2.70
2018-05-07T20:06:25.629Z,2.53
2018-05-07T20:08:53.390Z,2.63
2018-05-07T20:11:21.871Z,2.80
2018-05-07T20:13:49.296Z,3.07
2018-05-07T20:16:17.516Z,3.10
2018-05-07T20:18:44.962Z,3.30
2018-05-07T20:21:12.396Z,3.53
2018-05-07T20:23:39.879Z,3.40
2018-05-07T20:26:07.890Z,2.93
2018-05-07T20:28:35.380Z,3.20
2018-05-07T20:31:03.174Z,2.97
2018-05-07T20:33:30.608Z,3.40
2018-05-07T20:35:59.053Z,2.97
2018-05-07T20:38:27.268Z,3.37
2018-05-07T20:40:54.749Z,2.70
2018-05-07T20:43:22.924Z,3.40
2018-05-07T20:45:50.359Z,3.57
2018-05-07T20:48:17.803Z,2.90
2018-05-07T20:50:45.287Z,3.10
2018-05-07T20:53:12.731Z,3.07
2018-05-07T20:55:40.163Z,3.40
2018-05-07T20:58:07.614Z,3.57
2018-05-07T21:00:35.052Z,3.13
2018-05-07T21:03:02.489Z,3.47
2018-05-07T21:05:30.687Z,3.30
2018-05-07T21:07:58.128Z,3.40
2018-05-07T21:10:25.568Z,3.47
2018-05-07T21:12:53.785Z,3.60
2018-05-07T21:15:21.224Z,3.60
2018-05-07T21:17:48.649Z,3.40
2018-05-07T21:20:16.864Z,3.80
2018-05-07T21:22:44.299Z,3.63
2018-05-07T21:25:11.723Z,3.97
2018-05-07T21:27:39.938Z,4.20
2018-05-07T21:30:07.468Z,4.00
2018-05-07T21:32:35.670Z,3.67
2018-05-07T21:35:03.126Z,3.77
2018-05-07T21:37:30.573Z,4.20
2018-05-07T21:39:58.003Z,4.00
2018-05-07T21:42:26.289Z,4.07
2018-05-07T21:44:53.729Z,4.30
2018-05-07T21:47:21.919Z,4.00
2018-05-07T21:49:49.359Z,4.13
2018-05-07T21:52:17.564Z,4.17
2018-05-07T21:54:45.003Z,4.67
2018-05-07T21:57:12.432Z,4.10
2018-05-07T21:59:40.649Z,4.50
2018-05-07T22:02:08.078Z,4.27
2018-05-07T22:04:35.516Z,4.40
2018-05-07T22:07:03.721Z,4.33
2018-05-07T22:09:31.156Z,4.10
2018-05-07T22:11:58.711Z,4.17
2018-05-07T22:14:26.146Z,4.17
2018-05-07T22:16:54.356Z,4.50
2018-05-07T22:19:21.803Z,4.57
2018-05-07T22:21:49.240Z,4.53
2018-05-07T22:24:17.449Z,4.60
2018-05-07T22:26:44.880Z,4.27
2018-05-07T22:29:12.319Z,4.87
2018-05-07T22:31:40.528Z,4.67
2018-05-07T22:34:07.956Z,4.43
2018-05-07T22:36:35.400Z,4.30
2018-05-07T22:39:03.687Z,4.07
2018-05-07T22:41:31.477Z,4.30
2018-05-07T22:43:58.920Z,4.60
2018-05-07T22:46:26.357Z,4.77
2018-05-07T22:48:53.825Z,4.80
2018-05-07T22:51:21.235Z,5.33
2018-05-07T22:53:48.670Z,6.03
2018-05-07T22:56:16.115Z,4.90
2018-05-07T22:58:43.555Z,6.30
2018-05-07T23:01:10.985Z,4.87
2018-05-07T23:03:38.424Z,5.07
2018-05-07T23:06:06.626Z,5.53
2018-05-07T23:08:34.412Z,4.70
2018-05-07T23:11:02.604Z,5.33
2018-05-07T23:13:30.034Z,5.03
2018-05-07T23:15:57.476Z,5.17
2018-05-07T23:18:24.915Z,5.07
2018-05-07T23:20:52.363Z,5.43
2018-05-07T23:23:20.579Z,4.93
2018-05-07T23:25:48.012Z,5.60
2018-05-07T23:28:15.449Z,4.93
2018-05-07T23:30:42.904Z,5.63
2018-05-07T23:33:10.335Z,4.87
2018-05-07T23:35:38.540Z,5.03
2018-05-07T23:38:05.979Z,5.50
2018-05-07T23:40:33.411Z,5.93
2018-05-07T23:43:01.621Z,5.60
2018-05-07T23:45:29.060Z,5.97
2018-05-07T23:47:56.799Z,5.47
2018-05-07T23:50:25.015Z,6.47
2018-05-07T23:52:52.438Z,5.00
2018-05-07T23:55:20.965Z,5.60
2018-05-07T23:57:48.408Z,6.17
